createdAt,value
2019-05-01T00:02:05.885Z,8.33
2019-05-01T00:05:06.203Z,8.30
2019-05-01T00:07:36.978Z,8.44
2019-05-01T00:10:07.148Z,8.25
2019-05-01T00:12:37.489Z,8.42
2019-05-01T00:15:06.958Z,8.29
2019-05-01T00:17:36.890Z,8.41
2019-05-01T00:20:06.371Z,8.42
2019-05-01T00:22:35.643Z,8.45
2019-05-01T00:25:05.211Z,8.50
2019-05-01T00:27:35.735Z,8.69
2019-05-01T00:30:07.150Z,8.79
2019-05-01T00:32:38.066Z,8.62
2019-05-01T00:35:07.400Z,8.72
2019-05-01T00:37:36.739Z,8.80
2019-05-01T00:40:06.184Z,8.80
2019-05-01T00:42:35.392Z,8.94
2019-05-01T00:45:04.738Z,8.76
2019-05-01T00:47:34.102Z,8.93
2019-05-01T00:50:03.378Z,8.86
2019-05-01T00:52:32.622Z,8.90
2019-05-01T00:55:19.734Z,8.49
2019-05-01T00:57:58.490Z,8.59
2019-05-01T01:00:45.980Z,8.72
2019-05-01T01:03:15.182Z,8.61
2019-05-01T01:05:44.352Z,8.57
2019-05-01T01:08:13.557Z,8.60
2019-05-01T01:10:42.743Z,8.69
2019-05-01T01:13:11.970Z,8.64
2019-05-01T01:15:41.137Z,8.77
2019-05-01T01:18:10.399Z,8.76
2019-05-01T01:20:39.611Z,8.74
2019-05-01T01:23:08.762Z,8.77
2019-05-01T01:25:37.919Z,8.68
2019-05-01T01:28:07.125Z,8.64
2019-05-01T01:30:36.283Z,8.72
2019-05-01T01:33:05.446Z,8.56
2019-05-01T01:35:34.640Z,8.48
2019-05-01T01:38:03.896Z,8.33
2019-05-01T01:40:33.332Z,8.24
2019-05-01T01:43:22.790Z,8.47
2019-05-01T01:45:54.869Z,8.46
2019-05-01T01:48:24.136Z,8.52
2019-05-01T01:50:53.450Z,8.56
2019-05-01T01:53:22.906Z,8.46
2019-05-01T01:55:52.158Z,8.19
2019-05-01T01:58:22.306Z,8.15
2019-05-01T02:01:19.555Z,8.29
2019-05-01T02:03:53.238Z,8.12
2019-05-01T02:06:22.420Z,8.21
2019-05-01T02:08:56.664Z,8.16
2019-05-01T02:11:22.642Z,8.23
2019-05-01T02:13:55.843Z,8.25
2019-05-01T02:16:25.465Z,8.16
2019-05-01T02:18:55.183Z,8.24
2019-05-01T02:21:24.390Z,8.35
2019-05-01T02:23:53.619Z,8.58
2019-05-01T02:26:24.584Z,8.33
2019-05-01T02:29:04.603Z,8.28
2019-05-01T02:31:39.701Z,8.23
2019-05-01T02:34:09.246Z,8.22
2019-05-01T02:36:38.577Z,8.37
2019-05-01T02:39:10.055Z,8.53
2019-05-01T02:41:41.914Z,8.36
2019-05-01T02:44:22.794Z,8.34
2019-05-01T02:46:52.756Z,8.35
2019-05-01T02:49:45.787Z,8.43
2019-05-01T02:52:15.376Z,8.30
2019-05-01T02:54:46.560Z,8.27
2019-05-01T02:57:18.091Z,8.53
2019-05-01T02:59:49.844Z,8.43
2019-05-01T03:02:19.994Z,8.54
2019-05-01T03:04:49.758Z,8.52
2019-05-01T03:07:19.157Z,8.31
2019-05-01T03:09:48.319Z,8.34
2019-05-01T03:12:19.032Z,8.30
2019-05-01T03:14:49.687Z,8.30
2019-05-01T03:17:36.744Z,8.20
2019-05-01T03:20:21.679Z,8.35
2019-05-01T03:23:10.414Z,8.44
2019-05-01T03:25:39.768Z,8.45
2019-05-01T03:28:09.103Z,8.09
2019-05-01T03:30:38.395Z,8.29
2019-05-01T03:33:07.549Z,8.47
2019-05-01T03:35:36.752Z,8.57
2019-05-01T03:38:05.906Z,8.39
2019-05-01T03:40:35.095Z,8.35
2019-05-01T03:43:04.493Z,8.13
2019-05-01T03:45:34.445Z,8.19
2019-05-01T03:48:04.283Z,8.15
2019-05-01T03:50:33.581Z,8.04
2019-05-01T03:53:03.169Z,8.23
2019-05-01T03:55:32.524Z,8.02
2019-05-01T03:58:02.239Z,8.15
2019-05-01T04:00:44.258Z,8.06
2019-05-01T04:03:26.605Z,8.32
2019-05-01T04:05:55.861Z,8.33
2019-05-01T04:08:25.876Z,8.00
2019-05-01T04:10:55.692Z,7.99
2019-05-01T04:13:25.027Z,8.28
2019-05-01T04:15:54.630Z,8.42
2019-05-01T04:18:24.407Z,8.44
2019-05-01T04:20:53.602Z,8.34
2019-05-01T04:23:22.910Z,8.35
2019-05-01T04:25:52.180Z,8.50
2019-05-01T04:28:49.713Z,8.40
2019-05-01T04:31:36.604Z,8.50
2019-05-01T04:34:15.018Z,8.21
2019-05-01T04:36:47.419Z,8.12
2019-05-01T04:39:16.612Z,8.17
2019-05-01T04:41:45.917Z,8.17
2019-05-01T04:44:15.288Z,8.24
2019-05-01T04:46:44.444Z,8.29
2019-05-01T04:49:13.580Z,8.29
2019-05-01T04:51:42.883Z,8.27
2019-05-01T04:54:12.078Z,8.58
2019-05-01T04:56:41.328Z,8.84
2019-05-01T04:59:10.666Z,8.81
2019-05-01T05:01:57.999Z,8.66
2019-05-01T05:04:28.199Z,8.76
2019-05-01T05:06:57.453Z,8.57
2019-05-01T05:09:46.607Z,8.48
2019-05-01T05:12:23.107Z,8.52
2019-05-01T05:14:56.064Z,8.53
2019-05-01T05:17:25.375Z,8.72
2019-05-01T05:19:54.568Z,8.87
2019-05-01T05:22:24.016Z,8.89
2019-05-01T05:24:53.962Z,8.88
2019-05-01T05:27:24.760Z,8.88
2019-05-01T05:29:57.281Z,8.83
2019-05-01T05:32:27.509Z,8.58
2019-05-01T05:34:58.176Z,8.30
2019-05-01T05:37:32.429Z,8.25
2019-05-01T05:40:03.111Z,8.28
2019-05-01T05:42:32.501Z,8.57
2019-05-01T05:45:01.826Z,8.73
2019-05-01T05:47:31.015Z,8.87
2019-05-01T05:50:00.225Z,8.70
2019-05-01T05:52:41.425Z,8.69
2019-05-01T05:55:16.422Z,8.90
2019-05-01T05:58:16.697Z,8.70
2019-05-01T06:01:16.751Z,8.62
2019-05-01T06:04:25.759Z,8.38
2019-05-01T06:07:16.460Z,8.48
2019-05-01T06:09:52.898Z,9.00
2019-05-01T06:12:46.246Z,9.17
2019-05-01T06:15:31.438Z,9.14
2019-05-01T06:18:08.180Z,9.00
2019-05-01T06:20:44.261Z,9.18
2019-05-01T06:23:34.414Z,9.17
2019-05-01T06:26:23.248Z,9.43
2019-05-01T06:28:55.868Z,9.34
2019-05-01T06:31:25.131Z,9.36
2019-05-01T06:33:54.958Z,9.28
2019-05-01T06:36:24.435Z,9.10
2019-05-01T06:38:53.986Z,9.13
2019-05-01T06:41:23.461Z,9.35
2019-05-01T06:44:04.051Z,9.72
2019-05-01T06:46:40.638Z,9.61
2019-05-01T06:49:35.189Z,9.49
2019-05-01T06:52:05.771Z,9.64
2019-05-01T06:54:36.764Z,9.03
2019-05-01T06:57:06.597Z,9.44
2019-05-01T06:59:37.616Z,9.62
2019-05-01T07:02:07.348Z,9.90
2019-05-01T07:04:38.086Z,10.08
2019-05-01T07:07:24.056Z,10.15
2019-05-01T07:09:38.684Z,9.44
2019-05-01T07:12:12.564Z,9.40
2019-05-01T07:14:47.142Z,9.34
2019-05-01T07:17:14.848Z,9.82
2019-05-01T07:20:02.129Z,9.56
2019-05-01T07:22:31.491Z,10.12
2019-05-01T07:25:04.163Z,9.42
2019-05-01T07:27:32.190Z,9.48
2019-05-01T07:30:09.927Z,9.19
2019-05-01T07:32:41.199Z,9.54
2019-05-01T07:35:10.396Z,10.00
2019-05-01T07:37:39.864Z,10.21
2019-05-01T07:40:09.282Z,10.34
2019-05-01T07:42:43.772Z,10.59
2019-05-01T07:45:43.511Z,10.89
2019-05-01T07:48:10.760Z,11.12
2019-05-01T07:50:40.342Z,10.64
2019-05-01T07:53:09.547Z,10.41
2019-05-01T07:55:39.004Z,10.20
2019-05-01T07:58:10.340Z,10.22
2019-05-01T08:01:02.955Z,10.68
2019-05-01T08:03:33.318Z,10.77
2019-05-01T08:06:02.473Z,11.07
2019-05-01T08:08:31.650Z,10.17
2019-05-01T08:11:04.977Z,11.07
2019-05-01T08:13:34.997Z,11.03
2019-05-01T08:16:07.106Z,11.11
2019-05-01T08:18:43.701Z,11.31
2019-05-01T08:21:31.853Z,11.43
2019-05-01T08:24:01.676Z,11.16
2019-05-01T08:26:30.908Z,11.22
2019-05-01T08:29:24.107Z,11.56
2019-05-01T08:32:15.089Z,12.06
2019-05-01T08:34:49.222Z,11.88
2019-05-01T08:37:17.912Z,12.23
2019-05-01T08:39:46.135Z,12.07
2019-05-01T08:42:15.520Z,11.69
2019-05-01T08:44:59.940Z,12.17
2019-05-01T08:47:31.706Z,12.58
2019-05-01T08:50:06.996Z,13.14
2019-05-01T08:52:36.191Z,12.97
2019-05-01T08:55:09.341Z,13.41
2019-05-01T08:57:39.290Z,12.40
2019-05-01T09:00:08.335Z,11.64
2019-05-01T09:02:41.624Z,12.06
2019-05-01T09:05:27.794Z,12.22
2019-05-01T09:07:40.665Z,12.89
2019-05-01T09:10:10.000Z,13.35
2019-05-01T09:12:42.653Z,12.74
2019-05-01T09:15:12.538Z,12.69
2019-05-01T09:17:41.039Z,12.80
2019-05-01T09:20:10.314Z,12.57
2019-05-01T09:22:39.563Z,12.68
2019-05-01T09:25:10.445Z,12.59
2019-05-01T09:27:59.492Z,12.60
2019-05-01T09:30:39.124Z,13.27
2019-05-01T09:33:08.274Z,14.32
2019-05-01T09:35:40.140Z,14.05
2019-05-01T09:38:08.515Z,12.98
2019-05-01T09:40:37.672Z,12.37
2019-05-01T09:43:06.828Z,13.41
2019-05-01T09:45:36.029Z,13.17
2019-05-01T09:48:05.821Z,13.80
2019-05-01T09:50:36.663Z,13.76
2019-05-01T09:53:13.920Z,13.93
2019-05-01T09:56:03.176Z,13.33
2019-05-01T09:58:32.574Z,12.86
2019-05-01T10:01:01.792Z,12.86
2019-05-01T10:03:31.189Z,12.77
2019-05-01T10:06:00.377Z,13.20
2019-05-01T10:08:29.556Z,12.87
2019-05-01T10:10:59.957Z,13.34
2019-05-01T10:13:29.748Z,13.64
2019-05-01T10:15:58.941Z,14.21
2019-05-01T10:18:28.107Z,13.62
2019-05-01T10:20:57.356Z,13.40
2019-05-01T10:23:26.531Z,14.05
2019-05-01T10:25:57.390Z,12.73
2019-05-01T10:28:45.042Z,13.56
2019-05-01T10:31:34.582Z,13.92
2019-05-01T10:34:12.809Z,12.94
2019-05-01T10:36:49.851Z,13.82
2019-05-01T10:39:19.729Z,13.13
2019-05-01T10:41:48.126Z,13.65
2019-05-01T10:44:17.306Z,13.01
2019-05-01T10:46:46.502Z,13.55
2019-05-01T10:49:15.662Z,13.74
2019-05-01T10:51:44.882Z,14.21
2019-05-01T10:54:14.080Z,14.21
2019-05-01T10:56:43.268Z,15.08
2019-05-01T10:59:12.425Z,15.22
2019-05-01T11:01:47.999Z,14.88
2019-05-01T11:04:17.380Z,14.43
2019-05-01T11:06:46.646Z,14.23
2019-05-01T11:09:16.344Z,14.14
2019-05-01T11:11:45.507Z,14.06
2019-05-01T11:14:15.263Z,13.99
2019-05-01T11:16:44.440Z,13.52
2019-05-01T11:19:13.590Z,14.05
2019-05-01T11:21:42.796Z,14.78
2019-05-01T11:24:11.945Z,14.72
2019-05-01T11:26:41.170Z,15.38
2019-05-01T11:29:10.396Z,15.31
2019-05-01T11:31:58.539Z,16.01
2019-05-01T11:34:48.064Z,16.27
2019-05-01T11:37:34.657Z,15.68
2019-05-01T11:40:14.093Z,16.00
2019-05-01T11:42:43.314Z,15.40
2019-05-01T11:45:12.866Z,15.70
2019-05-01T11:47:42.105Z,16.13
2019-05-01T11:50:11.664Z,15.93
2019-05-01T11:52:41.008Z,16.33
2019-05-01T11:55:10.271Z,15.89
2019-05-01T11:57:39.624Z,15.44
2019-05-01T12:00:10.129Z,15.63
2019-05-01T12:02:39.440Z,14.96
2019-05-01T12:05:08.874Z,15.12
2019-05-01T12:07:38.077Z,15.48
2019-05-01T12:10:07.454Z,14.75
2019-05-01T12:12:36.683Z,15.35
2019-05-01T12:15:07.088Z,15.63
